createdAt,value
2022-12-19T00:01:26.745Z,101933.66
2022-12-19T00:04:08.600Z,101926.00
2022-12-19T00:06:37.819Z,101919.97
2022-12-19T00:09:05.421Z,101915.69
2022-12-19T00:11:32.434Z,101921.53
2022-12-19T00:13:59.557Z,101920.72
2022-12-19T00:16:28.872Z,101920.72
2022-12-19T00:18:58.069Z,101918.88
2022-12-19T00:21:26.682Z,101917.97
2022-12-19T00:23:53.421Z,101923.91
2022-12-19T00:26:22.762Z,101930.59
2022-12-19T00:28:52.127Z,101931.31
2022-12-19T00:31:19.941Z,101923.47
2022-12-19T00:33:47.549Z,101906.41
2022-12-19T00:36:22.633Z,101897.03
2022-12-19T00:38:51.615Z,101889.28
2022-12-19T00:41:29.790Z,101897.66
2022-12-19T00:44:07.804Z,101903.50
2022-12-19T00:46:35.556Z,101903.41
2022-12-19T00:49:02.765Z,101888.72
2022-12-19T00:51:30.694Z,101878.41
2022-12-19T00:53:57.883Z,101868.84
2022-12-19T00:56:30.942Z,101850.69
2022-12-19T00:59:00.005Z,101848.03
2022-12-19T01:01:29.703Z,101847.84
2022-12-19T01:04:27.313Z,101835.78
2022-12-19T01:06:44.659Z,101841.66
2022-12-19T01:09:12.845Z,101840.63
2022-12-19T01:11:57.823Z,101837.09
2022-12-19T01:14:24.308Z,101831.88
2022-12-19T01:16:51.475Z,101841.19
2022-12-19T01:19:17.949Z,101832.59
2022-12-19T01:21:44.509Z,101841.94
2022-12-19T01:24:10.946Z,101836.72
2022-12-19T01:26:37.509Z,101838.25
2022-12-19T01:29:05.346Z,101836.56
2022-12-19T01:31:33.369Z,101831.22
2022-12-19T01:34:00.859Z,101821.75
2022-12-19T01:36:28.126Z,101818.16
2022-12-19T01:38:58.506Z,101814.53
2022-12-19T01:41:25.347Z,101806.84
2022-12-19T01:44:01.850Z,101811.88
2022-12-19T01:46:44.558Z,101809.84
2022-12-19T01:49:19.148Z,101806.28
2022-12-19T01:51:49.348Z,101801.09
2022-12-19T01:54:25.411Z,101793.41
2022-12-19T01:56:55.065Z,101799.25
2022-12-19T01:59:28.833Z,101776.84
2022-12-19T02:02:03.133Z,101782.69
2022-12-19T02:04:32.329Z,101780.88
2022-12-19T02:07:15.133Z,101773.72
2022-12-19T02:09:45.361Z,101771.97
2022-12-19T02:12:11.905Z,101775.16
2022-12-19T02:14:38.744Z,101780.00
2022-12-19T02:17:23.923Z,101762.81
2022-12-19T02:20:34.342Z,101765.81
2022-12-19T02:23:00.634Z,101752.09
2022-12-19T02:25:49.545Z,101753.53
2022-12-19T02:28:39.484Z,101751.50
2022-12-19T02:31:19.478Z,101748.66
2022-12-19T02:34:16.512Z,101739.84
2022-12-19T02:36:52.842Z,101744.66
2022-12-19T02:39:29.700Z,101737.50
2022-12-19T02:41:59.579Z,101732.91
2022-12-19T02:44:31.475Z,101728.53
2022-12-19T02:47:00.670Z,101718.78
2022-12-19T02:49:31.023Z,101720.22
2022-12-19T02:51:57.824Z,101706.41
2022-12-19T02:54:25.049Z,101704.44
2022-12-19T02:57:32.346Z,101696.56
2022-12-19T03:00:17.822Z,101694.69
2022-12-19T03:03:06.717Z,101686.00
2022-12-19T03:05:36.179Z,101688.38
2022-12-19T03:08:28.614Z,101691.44
2022-12-19T03:11:00.897Z,101686.00
2022-12-19T03:13:46.336Z,101695.94
2022-12-19T03:16:13.453Z,101693.19
2022-12-19T03:18:40.626Z,101691.00
2022-12-19T03:21:12.280Z,101681.38
2022-12-19T03:23:39.827Z,101677.69
2022-12-19T03:26:10.715Z,101674.16
2022-12-19T03:28:44.186Z,101679.09
2022-12-19T03:31:14.037Z,101678.78
2022-12-19T03:33:43.006Z,101673.22
2022-12-19T03:36:15.711Z,101668.09
2022-12-19T03:38:45.335Z,101667.06
2022-12-19T03:41:14.303Z,101670.47
2022-12-19T03:43:43.206Z,101665.00
2022-12-19T03:46:15.631Z,101665.59
2022-12-19T03:48:48.211Z,101649.28
2022-12-19T03:51:38.800Z,101653.28
2022-12-19T03:54:21.884Z,101646.28
2022-12-19T03:56:54.253Z,101652.97
2022-12-19T03:59:24.074Z,101648.31
2022-12-19T04:01:53.991Z,101633.53
2022-12-19T04:04:23.336Z,101642.06
2022-12-19T04:06:51.883Z,101633.91
2022-12-19T04:09:22.695Z,101631.22
2022-12-19T04:11:58.712Z,101630.31
2022-12-19T04:14:34.588Z,101632.53
2022-12-19T04:17:13.472Z,101632.53
2022-12-19T04:19:47.910Z,101621.97
2022-12-19T04:22:22.639Z,101629.53
2022-12-19T04:24:51.127Z,101619.88
2022-12-19T04:27:20.558Z,101621.28
2022-12-19T04:29:49.336Z,101613.69
2022-12-19T04:32:15.998Z,101626.06
2022-12-19T04:34:43.161Z,101620.81
2022-12-19T04:37:11.072Z,101625.03
2022-12-19T04:39:37.751Z,101627.38
2022-12-19T04:42:04.426Z,101618.75
2022-12-19T04:44:31.037Z,101619.47
2022-12-19T04:46:57.473Z,101608.97
2022-12-19T04:49:23.876Z,101621.56
2022-12-19T04:51:50.840Z,101613.75
2022-12-19T04:54:17.293Z,101612.03
2022-12-19T04:56:43.699Z,101600.69
2022-12-19T04:59:10.535Z,101608.75
2022-12-19T05:01:37.070Z,101616.13
2022-12-19T05:04:04.862Z,101603.16
2022-12-19T05:06:31.739Z,101597.81
2022-12-19T05:08:58.534Z,101593.34
2022-12-19T05:11:24.906Z,101597.47
2022-12-19T05:13:51.605Z,101587.06
2022-12-19T05:16:18.202Z,101599.81
2022-12-19T05:18:44.966Z,101592.69
2022-12-19T05:21:11.495Z,101578.81
2022-12-19T05:23:37.984Z,101584.75
2022-12-19T05:26:05.607Z,101580.19
2022-12-19T05:28:33.076Z,101580.66
2022-12-19T05:31:05.208Z,101576.00
2022-12-19T05:33:31.729Z,101575.75
2022-12-19T05:35:58.165Z,101576.34
2022-12-19T05:38:25.885Z,101583.94
2022-12-19T05:40:52.243Z,101571.56
2022-12-19T05:43:18.652Z,101572.13
2022-12-19T05:45:45.060Z,101576.34
2022-12-19T05:48:11.547Z,101574.81
2022-12-19T05:50:38.077Z,101572.00
2022-12-19T05:53:04.429Z,101571.19
2022-12-19T05:55:30.969Z,101589.63
2022-12-19T05:57:57.444Z,101572.09
2022-12-19T06:00:23.889Z,101574.56
2022-12-19T06:02:50.475Z,101580.13
2022-12-19T06:05:17.139Z,101575.69
2022-12-19T06:07:43.540Z,101581.66
2022-12-19T06:10:09.993Z,101580.22
2022-12-19T06:12:36.431Z,101583.00
2022-12-19T06:15:03.027Z,101581.84
2022-12-19T06:17:29.421Z,101587.44
2022-12-19T06:19:55.812Z,101580.84
2022-12-19T06:22:22.285Z,101579.56
2022-12-19T06:24:48.670Z,101567.72
2022-12-19T06:27:15.049Z,101569.00
2022-12-19T06:29:41.471Z,101560.91
2022-12-19T06:32:08.734Z,101552.41
2022-12-19T06:35:04.989Z,101560.44
2022-12-19T06:37:21.645Z,101564.03
2022-12-19T06:39:50.649Z,101569.63
2022-12-19T06:42:23.105Z,101568.31
2022-12-19T06:44:51.375Z,101563.72
2022-12-19T06:47:18.528Z,101567.16
2022-12-19T06:49:48.549Z,101578.72
2022-12-19T06:52:15.874Z,101570.59
2022-12-19T06:54:42.448Z,101568.47
2022-12-19T06:57:08.947Z,101565.34
2022-12-19T06:59:35.336Z,101562.09
2022-12-19T07:02:16.765Z,101574.97
2022-12-19T07:04:54.353Z,101574.75
2022-12-19T07:07:20.768Z,101547.09
2022-12-19T07:09:48.310Z,101579.66
2022-12-19T07:12:14.832Z,101561.91
2022-12-19T07:14:41.229Z,101575.34
2022-12-19T07:17:07.632Z,101574.03
2022-12-19T07:19:34.987Z,101584.50
2022-12-19T07:22:03.647Z,101568.78
2022-12-19T07:24:30.604Z,101590.19
2022-12-19T07:26:57.682Z,101591.47
2022-12-19T07:29:24.084Z,101594.03
2022-12-19T07:31:50.495Z,101603.25
2022-12-19T07:34:16.969Z,101584.81
2022-12-19T07:36:43.377Z,101588.31
2022-12-19T07:39:09.852Z,101605.72
2022-12-19T07:41:37.549Z,101586.75
2022-12-19T07:44:04.785Z,101590.13
2022-12-19T07:46:31.232Z,101592.56
2022-12-19T07:48:57.623Z,101598.97
2022-12-19T07:51:24.181Z,101596.41
2022-12-19T07:53:50.552Z,101596.41
2022-12-19T07:56:17.358Z,101604.00
2022-12-19T07:58:44.667Z,101600.19
2022-12-19T08:01:12.302Z,101604.31
2022-12-19T08:03:38.815Z,101597.25
2022-12-19T08:06:07.221Z,101594.28
2022-12-19T08:08:35.264Z,101602.81
2022-12-19T08:11:12.292Z,101607.84
2022-12-19T08:13:43.264Z,101610.16
2022-12-19T08:16:12.765Z,101601.34
2022-12-19T08:18:39.170Z,101608.66
2022-12-19T08:21:08.162Z,101618.84
2022-12-19T08:23:34.621Z,101601.50
2022-12-19T08:26:03.818Z,101609.78
2022-12-19T08:28:32.015Z,101611.97
2022-12-19T08:31:00.728Z,101614.94
2022-12-19T08:33:27.275Z,101617.41
2022-12-19T08:35:53.776Z,101620.66
2022-12-19T08:38:20.144Z,101613.56
2022-12-19T08:40:52.803Z,101615.09
2022-12-19T08:43:19.432Z,101620.13
2022-12-19T08:45:48.874Z,101632.88
2022-12-19T08:48:15.650Z,101622.97
2022-12-19T08:50:50.404Z,101625.41
2022-12-19T08:53:21.430Z,101631.25
2022-12-19T08:55:55.984Z,101632.06
2022-12-19T08:58:23.638Z,101630.16
2022-12-19T09:00:55.527Z,101617.13
2022-12-19T09:03:24.539Z,101624.59
2022-12-19T09:06:06.952Z,101625.41
2022-12-19T09:08:37.555Z,101627.19
2022-12-19T09:11:13.661Z,101623.63
2022-12-19T09:13:41.791Z,101626.91
2022-12-19T09:16:18.395Z,101638.72
2022-12-19T09:18:48.754Z,101635.19
2022-12-19T09:21:16.827Z,101634.22
2022-12-19T09:23:48.610Z,101639.25
2022-12-19T09:26:16.541Z,101647.84
2022-12-19T09:28:43.241Z,101638.97
2022-12-19T09:31:16.043Z,101648.38
2022-12-19T09:33:43.963Z,101648.09
2022-12-19T09:36:22.942Z,101647.00
2022-12-19T09:38:50.192Z,101647.69
2022-12-19T09:41:22.521Z,101643.19
2022-12-19T09:44:10.728Z,101650.00
2022-12-19T09:46:43.148Z,101652.44
2022-12-19T09:49:16.686Z,101644.25
2022-12-19T09:52:01.009Z,101638.81
2022-12-19T09:54:50.280Z,101652.56
2022-12-19T09:57:25.726Z,101643.84
2022-12-19T10:00:00.061Z,101641.25
2022-12-19T10:02:50.990Z,101642.91
2022-12-19T10:06:57.260Z,101648.88
2022-12-19T10:08:40.123Z,101645.22
2022-12-19T10:12:43.318Z,101643.03
2022-12-19T10:14:48.242Z,101649.38
2022-12-19T10:17:30.295Z,101649.13
2022-12-19T10:20:28.249Z,101648.56
2022-12-19T10:23:20.167Z,101636.88
2022-12-19T10:25:52.325Z,101639.97
2022-12-19T10:28:55.458Z,101636.84
2022-12-19T10:31:38.007Z,101634.63
2022-12-19T10:34:18.650Z,101630.00
2022-12-19T10:39:46.649Z,101634.31
2022-12-19T10:42:30.200Z,101622.06
2022-12-19T10:44:59.120Z,101629.53
2022-12-19T10:47:25.747Z,101621.34
2022-12-19T10:49:52.175Z,101621.19
2022-12-19T10:52:45.625Z,101625.25
2022-12-19T10:55:34.571Z,101617.34
2022-12-19T10:58:12.865Z,101626.09
2022-12-19T11:00:47.191Z,101622.53
2022-12-19T11:03:19.395Z,101621.72
2022-12-19T11:05:57.983Z,101632.88
2022-12-19T11:08:25.037Z,101619.78
2022-12-19T11:12:01.221Z,101621.44
2022-12-19T11:18:26.415Z,101624.69
2022-12-19T11:23:30.599Z,101625.81
2022-12-19T11:29:30.009Z,101608.75
2022-12-19T11:29:30.142Z,101621.97
2022-12-19T11:29:33.380Z,101614.06
2022-12-19T11:30:45.504Z,101612.97
2022-12-19T11:34:16.644Z,101603.13
2022-12-19T11:37:17.346Z,101589.41
2022-12-19T11:40:10.131Z,101619.47
2022-12-19T11:43:41.881Z,101591.53
2022-12-19T11:46:00.297Z,101615.22
2022-12-19T11:48:38.678Z,101609.19
2022-12-19T11:51:14.417Z,101611.66
2022-12-19T11:54:04.613Z,101613.28
2022-12-19T11:56:31.058Z,101617.19
2022-12-19T11:59:07.571Z,101615.28
2022-12-19T12:01:58.145Z,101611.72
2022-12-19T12:04:51.368Z,101612.56
2022-12-19T12:08:06.536Z,101592.66
2022-12-19T12:13:50.594Z,101598.34
2022-12-19T12:19:04.512Z,101604.88
2022-12-19T12:27:54.415Z,101595.19
2022-12-19T12:31:02.134Z,101583.88
2022-12-19T12:31:12.276Z,101581.16
2022-12-19T12:31:47.567Z,101580.03
2022-12-19T12:35:09.296Z,101568.56
2022-12-19T12:35:56.813Z,101572.63
2022-12-19T12:37:54.018Z,101569.72
2022-12-19T12:38:51.103Z,101567.66
2022-12-19T12:41:47.139Z,101568.50
2022-12-19T12:44:15.009Z,101558.63
2022-12-19T12:46:48.148Z,101548.94
2022-12-19T12:49:23.924Z,101546.88
2022-12-19T12:51:51.316Z,101539.34
2022-12-19T12:54:18.985Z,101542.31
2022-12-19T12:56:46.755Z,101535.19
2022-12-19T12:59:23.923Z,101541.03
2022-12-19T13:01:56.985Z,101542.34
2022-12-19T13:04:35.668Z,101537.03
2022-12-19T13:07:12.725Z,101522.13
2022-12-19T13:09:40.535Z,101524.44
2022-12-19T13:12:44.962Z,101520.72
2022-12-19T13:15:29.896Z,101518.78
2022-12-19T13:17:56.262Z,101517.84
2022-12-19T13:20:27.831Z,101532.41
2022-12-19T13:22:57.986Z,101519.16
2022-12-19T13:25:30.423Z,101520.09
2022-12-19T13:27:58.965Z,101513.97
2022-12-19T13:30:27.866Z,101497.78
2022-12-19T13:32:54.286Z,101503.09
2022-12-19T13:36:45.918Z,101498.72
2022-12-19T13:39:54.163Z,101491.75
2022-12-19T13:41:49.585Z,101478.00
2022-12-19T13:44:21.728Z,101480.75
2022-12-19T13:46:48.845Z,101485.13
2022-12-19T13:49:25.105Z,101469.41
2022-12-19T13:51:57.606Z,101478.97
2022-12-19T13:54:31.375Z,101473.81
2022-12-19T13:56:59.141Z,101471.88
2022-12-19T13:59:30.437Z,101468.81
2022-12-19T14:02:08.300Z,101459.09
2022-12-19T14:04:34.910Z,101458.28
2022-12-19T14:07:19.590Z,101452.28
2022-12-19T14:11:30.111Z,101450.00
2022-12-19T14:14:00.860Z,101467.19
2022-12-19T14:15:51.813Z,101463.94
2022-12-19T14:18:44.892Z,101457.91
2022-12-19T14:22:09.800Z,101460.66
2022-12-19T14:24:10.881Z,101457.44
2022-12-19T14:28:25.300Z,101452.41
2022-12-19T14:30:25.924Z,101461.81
2022-12-19T14:33:47.500Z,101465.34
2022-12-19T14:36:07.717Z,101460.03
2022-12-19T14:39:20.437Z,101450.16
2022-12-19T14:41:08.305Z,101441.56
2022-12-19T14:43:56.197Z,101451.28
2022-12-19T14:52:34.788Z,101446.75
2022-12-19T14:54:14.084Z,101450.97
2022-12-19T14:54:26.179Z,101456.00
2022-12-19T14:56:12.429Z,101454.22
2022-12-19T14:58:50.754Z,101434.44
2022-12-19T15:01:10.131Z,101460.34
2022-12-19T15:04:49.200Z,101467.66
2022-12-19T15:07:09.009Z,101464.78
2022-12-19T15:10:58.249Z,101470.59
2022-12-19T15:14:48.490Z,101467.22
2022-12-19T15:15:58.896Z,101473.88
2022-12-19T15:18:32.973Z,101474.34
2022-12-19T15:21:05.276Z,101485.34
2022-12-19T15:23:32.354Z,101484.06
2022-12-19T15:26:08.437Z,101494.88
2022-12-19T15:28:55.533Z,101489.84
2022-12-19T15:31:38.362Z,101501.00
2022-12-19T15:34:44.447Z,101492.28
2022-12-19T15:37:14.361Z,101495.19
2022-12-19T15:39:41.510Z,101490.94
2022-12-19T15:42:21.552Z,101479.78
2022-12-19T15:44:49.267Z,101472.34
2022-12-19T15:47:37.009Z,101471.09
2022-12-19T15:50:16.895Z,101477.09
2022-12-19T15:52:43.354Z,101461.19
2022-12-19T15:55:18.036Z,101460.50
2022-12-19T15:57:47.892Z,101463.59
2022-12-19T16:00:23.106Z,101469.22
2022-12-19T16:05:37.249Z,101463.72
2022-12-19T16:08:11.601Z,101475.97
2022-12-19T16:10:38.216Z,101467.56
2022-12-19T16:13:04.684Z,101465.91
2022-12-19T16:15:33.312Z,101462.19
2022-12-19T16:18:03.250Z,101459.88
2022-12-19T16:20:39.391Z,101470.81
2022-12-19T16:23:06.703Z,101472.75
2022-12-19T16:25:45.337Z,101482.31
2022-12-19T16:28:16.459Z,101477.06
2022-12-19T16:30:44.434Z,101490.00
2022-12-19T16:33:25.709Z,101498.44
2022-12-19T16:36:04.104Z,101504.28
2022-12-19T16:38:31.480Z,101497.16
2022-12-19T16:40:57.924Z,101490.22
2022-12-19T16:43:31.887Z,101494.13
2022-12-19T16:46:39.579Z,101486.66
2022-12-19T16:49:14.771Z,101476.38
2022-12-19T16:51:41.331Z,101467.50
2022-12-19T16:54:07.772Z,101468.63
2022-12-19T16:56:47.848Z,101460.69
2022-12-19T16:59:30.780Z,101463.56
2022-12-19T17:01:58.606Z,101448.84
2022-12-19T17:04:25.983Z,101455.78
2022-12-19T17:06:53.706Z,101451.44
2022-12-19T17:09:23.116Z,101443.81
2022-12-19T17:12:01.188Z,101449.00
2022-12-19T17:14:30.473Z,101452.28
2022-12-19T17:17:01.250Z,101453.91
2022-12-19T17:19:34.520Z,101459.75
2022-12-19T17:22:00.883Z,101456.84
2022-12-19T17:24:27.453Z,101445.84
2022-12-19T17:26:53.883Z,101449.72
2022-12-19T17:29:20.233Z,101462.69
2022-12-19T17:31:46.705Z,101462.81
2022-12-19T17:34:38.537Z,101471.25
2022-12-19T17:37:05.253Z,101479.84
2022-12-19T17:39:34.072Z,101465.91
2022-12-19T17:42:21.556Z,101468.81
2022-12-19T17:44:48.160Z,101468.81
2022-12-19T17:47:16.245Z,101469.66
2022-12-19T17:49:43.251Z,101464.53
2022-12-19T17:52:14.646Z,101469.22
2022-12-19T17:54:41.092Z,101460.63
2022-12-19T17:57:13.395Z,101467.06
2022-12-19T17:59:40.842Z,101470.31
2022-12-19T18:02:18.509Z,101479.72
2022-12-19T18:04:45.162Z,101483.56
2022-12-19T18:07:15.565Z,101480.69
2022-12-19T18:09:42.108Z,101468.97
2022-12-19T18:12:08.650Z,101473.97
2022-12-19T18:14:35.498Z,101469.75
2022-12-19T18:17:03.135Z,101478.13
2022-12-19T18:19:32.100Z,101481.00
2022-12-19T18:21:58.875Z,101477.47
2022-12-19T18:24:25.834Z,101476.19
2022-12-19T18:26:52.303Z,101467.03
2022-12-19T18:29:18.690Z,101471.22
2022-12-19T18:31:50.911Z,101468.47
2022-12-19T18:34:23.888Z,101457.69
2022-12-19T18:36:51.799Z,101460.13
2022-12-19T18:39:29.049Z,101466.28
2022-12-19T18:41:55.471Z,101463.34
2022-12-19T18:44:23.055Z,101457.69
2022-12-19T18:46:51.739Z,101454.88
2022-12-19T18:49:19.231Z,101466.41
2022-12-19T18:51:45.890Z,101452.19
2022-12-19T18:54:18.178Z,101451.41
2022-12-19T18:56:45.195Z,101462.09
2022-12-19T18:59:11.999Z,101463.72
2022-12-19T19:01:43.991Z,101459.09
2022-12-19T19:04:13.012Z,101474.00
2022-12-19T19:06:43.608Z,101464.81
2022-12-19T19:09:18.187Z,101471.13
2022-12-19T19:11:45.060Z,101472.31
2022-12-19T19:14:11.546Z,101478.66
2022-12-19T19:16:39.730Z,101475.09
2022-12-19T19:19:10.594Z,101479.66
2022-12-19T19:21:38.143Z,101489.06
2022-12-19T19:24:23.326Z,101486.31
2022-12-19T19:26:49.821Z,101498.81
2022-12-19T19:29:18.872Z,101503.03
2022-12-19T19:31:47.677Z,101503.00
2022-12-19T19:34:20.767Z,101499.41
2022-12-19T19:36:49.449Z,101512.91
2022-12-19T19:39:16.759Z,101498.34
2022-12-19T19:41:43.102Z,101510.84
2022-12-19T19:44:09.511Z,101507.78
2022-12-19T19:46:37.061Z,101506.66
2022-12-19T19:49:03.515Z,101507.47
2022-12-19T19:51:29.919Z,101512.34
2022-12-19T19:53:56.347Z,101509.91
2022-12-19T19:56:22.794Z,101504.25
2022-12-19T19:58:49.249Z,101511.19
2022-12-19T20:01:15.776Z,101509.34
2022-12-19T20:03:44.572Z,101510.81
2022-12-19T20:06:11.419Z,101521.50
2022-12-19T20:08:40.131Z,101514.69
2022-12-19T20:11:09.124Z,101518.28
2022-12-19T20:13:35.661Z,101516.31
2022-12-19T20:16:02.943Z,101513.25
2022-12-19T20:18:29.503Z,101510.66
2022-12-19T20:20:56.023Z,101515.50
2022-12-19T20:23:22.402Z,101511.56
2022-12-19T20:25:48.864Z,101513.50
2022-12-19T20:28:15.244Z,101514.00
2022-12-19T20:30:41.701Z,101521.16
2022-12-19T20:33:08.180Z,101517.72
2022-12-19T20:35:34.587Z,101515.91
2022-12-19T20:38:01.116Z,101519.91
2022-12-19T20:40:27.766Z,101506.16
2022-12-19T20:42:54.353Z,101511.16
2022-12-19T20:45:22.473Z,101505.53
2022-12-19T20:47:48.898Z,101507.47
2022-12-19T20:50:16.118Z,101508.72
2022-12-19T20:52:42.678Z,101511.63
2022-12-19T20:55:12.446Z,101518.44
2022-12-19T20:57:38.831Z,101501.06
2022-12-19T21:00:06.882Z,101505.91
2022-12-19T21:02:59.876Z,101497.53
2022-12-19T21:05:20.710Z,101508.34
2022-12-19T21:07:47.266Z,101511.88
2022-12-19T21:10:13.863Z,101519.00
2022-12-19T21:12:47.123Z,101512.34
2022-12-19T21:15:14.220Z,101521.22
2022-12-19T21:17:40.593Z,101517.28
2022-12-19T21:20:07.733Z,101521.22
2022-12-19T21:22:34.176Z,101509.25
2022-12-19T21:25:00.611Z,101515.91
2022-12-19T21:27:27.098Z,101510.78
2022-12-19T21:29:53.540Z,101516.50
2022-12-19T21:32:20.033Z,101518.00
2022-12-19T21:34:46.534Z,101510.06
2022-12-19T21:37:12.918Z,101508.13
2022-12-19T21:39:39.314Z,101519.78
2022-12-19T21:42:05.729Z,101514.47
2022-12-19T21:44:32.113Z,101506.53
2022-12-19T21:46:58.595Z,101510.91
2022-12-19T21:49:25.044Z,101512.22
2022-12-19T21:51:51.529Z,101509.00
2022-12-19T21:54:17.962Z,101515.03
2022-12-19T21:56:44.415Z,101509.50
2022-12-19T21:59:14.058Z,101516.19
2022-12-19T22:01:41.675Z,101515.72
2022-12-19T22:04:13.718Z,101510.69
2022-12-19T22:06:40.263Z,101506.59
2022-12-19T22:09:11.893Z,101504.50
2022-12-19T22:11:38.468Z,101506.56
2022-12-19T22:14:05.551Z,101502.38
2022-12-19T22:16:32.601Z,101499.78
2022-12-19T22:18:59.152Z,101504.13
2022-12-19T22:21:26.511Z,101496.06
2022-12-19T22:23:56.224Z,101478.22
2022-12-19T22:26:23.675Z,101473.56
2022-12-19T22:28:53.208Z,101470.00
2022-12-19T22:31:25.127Z,101474.88
2022-12-19T22:33:57.976Z,101478.63
2022-12-19T22:36:28.388Z,101466.47
2022-12-19T22:38:56.431Z,101464.34
2022-12-19T22:41:22.958Z,101466.13
2022-12-19T22:43:49.358Z,101479.09
2022-12-19T22:46:21.433Z,101472.44
2022-12-19T22:48:49.187Z,101471.63
2022-12-19T22:51:17.944Z,101464.00
2022-12-19T22:53:45.152Z,101463.53
2022-12-19T22:56:20.691Z,101456.56
2022-12-19T22:58:49.334Z,101454.13
2022-12-19T23:01:25.060Z,101445.72
2022-12-19T23:03:55.403Z,101450.88
2022-12-19T23:06:23.607Z,101453.13
2022-12-19T23:08:49.955Z,101450.00
2022-12-19T23:11:18.958Z,101444.34
2022-12-19T23:13:46.327Z,101454.88
2022-12-19T23:16:15.816Z,101456.66
2022-12-19T23:18:42.944Z,101462.94
2022-12-19T23:21:20.960Z,101458.59
2022-12-19T23:23:49.509Z,101456.81
2022-12-19T23:26:19.134Z,101460.84
2022-12-19T23:28:51.568Z,101458.41
2022-12-19T23:31:18.149Z,101464.09
2022-12-19T23:33:44.575Z,101470.22
2022-12-19T23:36:11.152Z,101472.16
2022-12-19T23:38:37.596Z,101456.16
2022-12-19T23:41:06.876Z,101453.28
2022-12-19T23:43:35.503Z,101450.38
2022-12-19T23:46:06.793Z,101448.47
2022-12-19T23:48:33.375Z,101450.09
2022-12-19T23:51:01.300Z,101450.25
2022-12-19T23:53:28.410Z,101447.00
2022-12-19T23:55:54.923Z,101436.94
2022-12-19T23:58:24.634Z,101438.75
